Time;durP1;ratioP1;P1;durP2;ratioP2;P2;SDS_P1;SDS_P2;PMS_P1;PMS_P2;Temp;Humidity;BMP_temperature;BMP_pressure;BME280_temperature;BME280_humidity;BME280_pressure;Samples;Min_cycle;Max_cycle;Signal;HPM_P1;HPM_P2
2023/08/22 00:01:12;;;;;;;10.77;5.03;;;;;;;;;;5063825;28;20045;-78
2023/08/22 00:03:38;;;;;;;10.30;5.22;;;;;;;;;;5048907;28;20044;-79
2023/08/22 00:06:05;;;;;;;9.88;4.97;;;;;;;;;;5073183;28;20123;-80
2023/08/22 00:08:31;;;;;;;12.25;5.78;;;;;;;;;;5072618;28;20620;-77
2023/08/22 00:10:59;;;;;;;8.80;5.70;;;;;;;;;;5058237;28;20051;-78
2023/08/22 00:13:25;;;;;;;9.60;5.65;;;;;;;;;;5076005;28;20052;-77
2023/08/22 00:15:51;;;;;;;10.63;5.38;;;;;;;;;;5059818;28;20114;-78
2023/08/22 00:18:17;;;;;;;12.07;5.18;;;;;;;;;;5063946;28;20041;-78
2023/08/22 00:20:43;;;;;;;10.30;5.03;;;;;;;;;;5073391;28;20502;-77
2023/08/22 00:23:09;;;;;;;7.60;3.42;;;;;;;;;;5062266;28;20097;-77
2023/08/22 00:25:35;;;;;;;7.80;3.95;;;;;;;;;;5088129;28;20048;-79
2023/08/22 00:28:01;;;;;;;10.93;4.65;;;;;;;;;;5074444;28;20047;-78
2023/08/22 00:30:27;;;;;;;8.13;4.40;;;;;;;;;;5061978;28;20036;-78
2023/08/22 00:32:53;;;;;;;14.50;5.05;;;;;;;;;;5075973;28;20067;-77
2023/08/22 00:35:24;;;;;;;11.82;5.50;;;;;;;;;;5076248;28;20040;-78
2023/08/22 00:37:50;;;;;;;7.75;5.38;;;;;;;;;;5044605;28;20057;-77
2023/08/22 00:40:16;;;;;;;13.40;6.15;;;;;;;;;;5064845;28;20094;-77
2023/08/22 00:42:42;;;;;;;12.02;6.22;;;;;;;;;;5071346;28;20041;-78
2023/08/22 00:45:08;;;;;;;14.00;7.18;;;;;;;;;;5075507;28;20120;-78
2023/08/22 00:47:35;;;;;;;12.95;8.40;;;;;;;;;;5077132;28;20127;-77
2023/08/22 00:50:01;;;;;;;12.50;7.13;;;;;;;;;;5075614;28;20123;-78
2023/08/22 00:52:27;;;;;;;12.18;7.07;;;;;;;;;;5077104;28;20162;-78
2023/08/22 00:54:53;;;;;;;13.10;7.60;;;;;;;;;;5068031;28;20051;-77
2023/08/22 00:57:20;;;;;;;13.18;7.70;;;;;;;;;;5070800;28;20691;-78
2023/08/22 00:59:46;;;;;;;12.57;7.70;;;;;;;;;;5072973;28;20039;-78
2023/08/22 01:02:12;;;;;;;13.23;7.30;;;;;;;;;;5075429;28;20405;-77
2023/08/22 01:04:38;;;;;;;13.00;7.57;;;;;;;;;;5074363;28;20049;-78
2023/08/22 01:07:10;;;;;;;14.65;7.85;;;;;;;;;;5048050;28;20459;-78
2023/08/22 01:09:52;;;;;;;15.85;7.50;;;;;;;;;;5066582;28;20499;-78
2023/08/22 01:12:21;;;;;;;12.38;7.72;;;;;;;;;;5071095;28;20260;-77
2023/08/22 01:14:52;;;;;;;12.95;7.10;;;;;;;;;;5075869;28;20037;-77
2023/08/22 01:17:18;;;;;;;12.83;7.30;;;;;;;;;;5068295;28;20075;-77
2023/08/22 01:19:44;;;;;;;10.23;6.72;;;;;;;;;;5046025;28;20061;-77
2023/08/22 01:22:10;;;;;;;10.23;6.43;;;;;;;;;;5076559;28;20053;-77
2023/08/22 01:24:36;;;;;;;10.48;6.97;;;;;;;;;;5076367;28;20491;-77
2023/08/22 01:27:04;;;;;;;11.10;6.97;;;;;;;;;;5075849;28;20052;-77
2023/08/22 01:29:36;;;;;;;10.43;7.20;;;;;;;;;;5067115;28;20055;-77
2023/08/22 01:32:12;;;;;;;11.65;6.88;;;;;;;;;;5065571;28;20052;-77
2023/08/22 01:34:39;;;;;;;10.70;6.63;;;;;;;;;;5075715;28;20076;-78
2023/08/22 01:37:08;;;;;;;11.13;6.30;;;;;;;;;;5076236;28;20076;-78
2023/08/22 01:39:35;;;;;;;11.98;6.10;;;;;;;;;;5076060;28;20044;-78
2023/08/22 01:42:02;;;;;;;12.48;6.90;;;;;;;;;;5075377;28;20123;-80
2023/08/22 01:44:28;;;;;;;11.82;6.80;;;;;;;;;;5077534;28;20047;-80
2023/08/22 01:46:55;;;;;;;10.43;6.85;;;;;;;;;;5080115;28;20115;-78
2023/08/22 01:49:21;;;;;;;12.52;7.60;;;;;;;;;;5083410;28;20485;-78
2023/08/22 01:51:47;;;;;;;12.60;6.78;;;;;;;;;;5084812;28;20044;-78
2023/08/22 01:54:15;;;;;;;11.70;6.97;;;;;;;;;;5087828;28;20045;-77
2023/08/22 01:56:41;;;;;;;12.43;6.60;;;;;;;;;;5080635;28;20077;-77
2023/08/22 01:59:07;;;;;;;9.77;6.45;;;;;;;;;;5077098;28;20044;-78
2023/08/22 02:01:33;;;;;;;8.75;5.90;;;;;;;;;;5088157;28;20049;-78
2023/08/22 02:04:03;;;;;;;11.07;6.43;;;;;;;;;;5088503;28;20044;-78
2023/08/22 02:06:30;;;;;;;13.40;6.80;;;;;;;;;;5080161;28;20056;-78
2023/08/22 02:08:56;;;;;;;11.43;6.18;;;;;;;;;;5080085;28;20486;-78
2023/08/22 02:11:22;;;;;;;12.25;7.00;;;;;;;;;;5083926;28;20052;-78
2023/08/22 02:13:48;;;;;;;11.43;6.30;;;;;;;;;;5059020;28;20049;-79
2023/08/22 02:16:15;;;;;;;9.32;6.78;;;;;;;;;;5079483;28;20044;-79
2023/08/22 02:18:41;;;;;;;9.88;6.75;;;;;;;;;;5082261;28;20053;-78
2023/08/22 02:21:07;;;;;;;13.23;7.05;;;;;;;;;;5072332;28;20056;-78
2023/08/22 02:23:33;;;;;;;13.13;7.30;;;;;;;;;;5067832;28;20053;-78
2023/08/22 02:26:00;;;;;;;14.73;6.88;;;;;;;;;;5068161;28;20053;-78
2023/08/22 02:28:26;;;;;;;12.45;6.60;;;;;;;;;;5074011;28;20066;-78
2023/08/22 02:30:56;;;;;;;12.43;6.78;;;;;;;;;;5058366;28;20074;-79
2023/08/22 02:33:22;;;;;;;11.18;6.68;;;;;;;;;;5079448;28;20075;-78
2023/08/22 02:35:48;;;;;;;15.98;6.80;;;;;;;;;;5079885;28;20513;-78
2023/08/22 02:38:14;;;;;;;11.45;6.85;;;;;;;;;;5079453;28;20635;-80
2023/08/22 02:40:40;;;;;;;12.38;7.10;;;;;;;;;;5061307;28;20518;-78
2023/08/22 02:43:06;;;;;;;12.70;6.72;;;;;;;;;;5078994;28;20070;-78
2023/08/22 02:45:32;;;;;;;11.05;6.22;;;;;;;;;;5082672;28;20474;-79
2023/08/22 02:47:58;;;;;;;10.63;6.78;;;;;;;;;;5081086;28;20040;-77
2023/08/22 02:50:25;;;;;;;10.15;6.65;;;;;;;;;;5064512;28;20098;-79
2023/08/22 02:52:51;;;;;;;11.75;6.60;;;;;;;;;;5081852;28;20074;-78
2023/08/22 02:55:17;;;;;;;11.63;6.55;;;;;;;;;;5063499;28;20186;-78
2023/08/22 02:57:44;;;;;;;14.23;7.95;;;;;;;;;;5058980;28;20127;-77
2023/08/22 03:00:11;;;;;;;11.50;6.82;;;;;;;;;;5071119;28;20043;-78
2023/08/22 03:02:37;;;;;;;12.32;6.47;;;;;;;;;;5054855;28;20045;-78
2023/08/22 03:05:07;;;;;;;11.02;6.78;;;;;;;;;;5073023;28;20128;-78
2023/08/22 03:07:33;;;;;;;13.80;7.65;;;;;;;;;;5071976;28;20049;-78
2023/08/22 03:09:59;;;;;;;12.25;7.43;;;;;;;;;;5064743;28;20509;-78
2023/08/22 03:12:25;;;;;;;10.45;7.20;;;;;;;;;;5076478;28;20453;-78
2023/08/22 03:14:51;;;;;;;14.45;7.00;;;;;;;;;;5050640;28;20528;-78
2023/08/22 03:17:17;;;;;;;14.82;7.70;;;;;;;;;;5075530;28;20104;-78
2023/08/22 03:19:43;;;;;;;17.35;7.03;;;;;;;;;;5066625;28;20060;-77
2023/08/22 03:22:09;;;;;;;13.02;6.70;;;;;;;;;;5071518;28;20064;-78
2023/08/22 03:24:35;;;;;;;11.18;6.13;;;;;;;;;;5054549;28;20037;-78
2023/08/22 03:27:01;;;;;;;11.85;6.82;;;;;;;;;;5077519;28;20045;-77
2023/08/22 03:29:28;;;;;;;12.95;6.88;;;;;;;;;;5077639;28;20045;-77
2023/08/22 03:31:56;;;;;;;11.00;6.20;;;;;;;;;;5074006;28;20040;-77
2023/08/22 03:34:22;;;;;;;12.57;6.88;;;;;;;;;;5072088;28;20047;-78
2023/08/22 03:36:48;;;;;;;11.73;6.40;;;;;;;;;;5057316;28;20048;-78
2023/08/22 03:39:14;;;;;;;14.80;6.47;;;;;;;;;;5076745;28;20052;-77
2023/08/22 03:41:41;;;;;;;11.35;6.65;;;;;;;;;;5075058;28;20063;-78
2023/08/22 03:44:07;;;;;;;13.23;6.10;;;;;;;;;;5067456;28;20047;-78
2023/08/22 03:46:33;;;;;;;12.50;6.13;;;;;;;;;;5047177;28;20055;-78
2023/08/22 03:48:59;;;;;;;10.27;6.10;;;;;;;;;;5078326;28;20041;-78
2023/08/22 03:51:25;;;;;;;10.13;5.53;;;;;;;;;;5062976;28;20094;-78
2023/08/22 03:53:51;;;;;;;11.35;6.32;;;;;;;;;;5076870;28;20091;-77
2023/08/22 03:56:17;;;;;;;10.05;6.03;;;;;;;;;;5066204;28;20045;-77
2023/08/22 03:58:43;;;;;;;10.60;6.47;;;;;;;;;;5066231;28;20033;-78
2023/08/22 04:01:10;;;;;;;11.63;6.22;;;;;;;;;;5072365;28;20041;-77
2023/08/22 04:03:37;;;;;;;12.07;6.13;;;;;;;;;;5073873;28;20056;-77
2023/08/22 04:06:03;;;;;;;10.82;5.65;;;;;;;;;;5042226;28;20053;-77
2023/08/22 04:08:30;;;;;;;9.93;5.57;;;;;;;;;;5077980;28;20048;-77
2023/08/22 04:10:56;;;;;;;11.60;5.75;;;;;;;;;;5069254;28;20041;-77
2023/08/22 04:13:22;;;;;;;10.52;5.40;;;;;;;;;;5069867;28;20045;-77
2023/08/22 04:15:49;;;;;;;10.95;5.25;;;;;;;;;;5074690;28;21017;-76
2023/08/22 04:18:15;;;;;;;13.18;5.43;;;;;;;;;;5055088;28;20529;-77
2023/08/22 04:20:43;;;;;;;10.95;4.78;;;;;;;;;;5056643;28;20457;-78
2023/08/22 04:23:09;;;;;;;9.90;5.13;;;;;;;;;;5069173;28;20074;-76
2023/08/22 04:25:36;;;;;;;8.85;5.13;;;;;;;;;;5075093;28;20437;-78
2023/08/22 04:28:02;;;;;;;12.20;5.50;;;;;;;;;;5071205;28;20127;-78
2023/08/22 04:30:28;;;;;;;10.95;5.78;;;;;;;;;;5049415;28;20151;-78
2023/08/22 04:32:54;;;;;;;11.57;4.93;;;;;;;;;;5065647;28;20037;-77
2023/08/22 04:35:20;;;;;;;10.27;4.95;;;;;;;;;;5069408;28;20044;-78
2023/08/22 04:37:46;;;;;;;11.82;5.15;;;;;;;;;;5071681;28;20040;-78
2023/08/22 04:40:12;;;;;;;9.52;4.50;;;;;;;;;;5072753;28;20046;-78
2023/08/22 04:42:38;;;;;;;12.27;5.30;;;;;;;;;;5071927;28;20041;-78
2023/08/22 04:45:04;;;;;;;8.73;4.97;;;;;;;;;;5063522;28;20048;-78
2023/08/22 04:47:30;;;;;;;9.93;5.30;;;;;;;;;;5063222;28;20044;-78
2023/08/22 04:49:56;;;;;;;10.23;5.30;;;;;;;;;;5075455;28;20047;-78
2023/08/22 04:52:22;;;;;;;9.48;4.90;;;;;;;;;;5069823;28;20355;-78
2023/08/22 04:54:49;;;;;;;11.48;5.75;;;;;;;;;;5074175;28;20048;-77
2023/08/22 04:57:15;;;;;;;8.45;5.32;;;;;;;;;;5053673;28;20129;-77
2023/08/22 04:59:41;;;;;;;8.73;4.85;;;;;;;;;;5074127;28;20140;-77
2023/08/22 05:02:07;;;;;;;10.27;5.47;;;;;;;;;;5074664;28;20517;-77
2023/08/22 05:04:33;;;;;;;7.53;4.72;;;;;;;;;;5057168;28;20041;-77
2023/08/22 05:06:59;;;;;;;9.98;5.32;;;;;;;;;;5074311;28;20040;-78
2023/08/22 05:09:25;;;;;;;9.70;4.20;;;;;;;;;;5073709;28;20055;-76
2023/08/22 05:11:51;;;;;;;7.43;4.25;;;;;;;;;;5070407;28;20052;-77
2023/08/22 05:14:17;;;;;;;7.28;3.88;;;;;;;;;;5074695;28;20506;-77
2023/08/22 05:16:44;;;;;;;9.35;4.28;;;;;;;;;;5073967;28;20051;-77
2023/08/22 05:19:10;;;;;;;9.90;4.53;;;;;;;;;;5076250;28;20536;-77
2023/08/22 05:21:36;;;;;;;9.90;4.72;;;;;;;;;;5075702;28;20117;-77
2023/08/22 05:24:02;;;;;;;9.27;4.55;;;;;;;;;;5078513;28;20039;-77
2023/08/22 05:26:28;;;;;;;9.13;4.32;;;;;;;;;;5075216;28;20206;-78
2023/08/22 05:28:54;;;;;;;13.50;5.55;;;;;;;;;;5075935;28;20479;-77
2023/08/22 05:31:21;;;;;;;10.13;5.93;;;;;;;;;;5070206;28;20391;-78
2023/08/22 05:33:47;;;;;;;9.30;5.88;;;;;;;;;;5075380;28;20055;-77
2023/08/22 05:36:13;;;;;;;12.45;5.43;;;;;;;;;;5085189;28;20044;-78
2023/08/22 05:38:39;;;;;;;10.65;5.68;;;;;;;;;;5060436;28;20061;-78
2023/08/22 05:41:05;;;;;;;9.52;5.75;;;;;;;;;;5073129;28;20103;-77
2023/08/22 05:43:31;;;;;;;11.45;7.22;;;;;;;;;;5060012;28;20033;-78
2023/08/22 05:45:57;;;;;;;13.40;6.80;;;;;;;;;;5076846;28;20055;-78
2023/08/22 05:48:23;;;;;;;13.43;7.43;;;;;;;;;;5052932;28;20048;-78
2023/08/22 05:50:50;;;;;;;11.48;6.10;;;;;;;;;;5076454;28;20045;-79
2023/08/22 05:53:16;;;;;;;11.38;6.30;;;;;;;;;;5076403;28;20459;-78
2023/08/22 05:55:42;;;;;;;12.35;6.03;;;;;;;;;;5076886;28;20123;-78
2023/08/22 05:58:09;;;;;;;13.25;5.85;;;;;;;;;;5070910;28;20479;-78
2023/08/22 06:00:35;;;;;;;13.95;6.03;;;;;;;;;;5063650;28;20049;-78
2023/08/22 06:03:02;;;;;;;13.05;5.72;;;;;;;;;;5050183;28;20036;-78
2023/08/22 06:05:28;;;;;;;9.88;5.57;;;;;;;;;;5075280;28;20048;-78
2023/08/22 06:07:54;;;;;;;11.93;6.82;;;;;;;;;;5078029;28;20043;-77
2023/08/22 06:10:23;;;;;;;15.02;7.30;;;;;;;;;;5073020;28;20044;-78
2023/08/22 06:12:49;;;;;;;11.68;6.85;;;;;;;;;;5066321;28;20513;-78
2023/08/22 06:15:15;;;;;;;15.25;7.30;;;;;;;;;;5073044;28;20056;-77
2023/08/22 06:17:41;;;;;;;10.73;6.57;;;;;;;;;;5077526;28;20474;-78
2023/08/22 06:20:08;;;;;;;12.02;6.25;;;;;;;;;;5071508;28;20517;-78
2023/08/22 06:22:34;;;;;;;13.52;6.80;;;;;;;;;;5058874;28;20136;-78
2023/08/22 06:25:04;;;;;;;12.35;6.72;;;;;;;;;;5050999;28;20047;-79
2023/08/22 06:27:30;;;;;;;11.47;6.83;;;;;;;;;;5064412;28;20053;-78
2023/08/22 06:29:56;;;;;;;14.80;7.05;;;;;;;;;;5072056;28;20048;-78
2023/08/22 06:32:22;;;;;;;11.23;6.97;;;;;;;;;;5068795;28;20558;-76
2023/08/22 06:34:49;;;;;;;11.43;6.55;;;;;;;;;;5069966;28;20045;-78
2023/08/22 06:37:15;;;;;;;14.63;7.68;;;;;;;;;;5068244;28;20055;-78
2023/08/22 06:39:41;;;;;;;13.68;7.43;;;;;;;;;;5074969;28;20041;-78
2023/08/22 06:42:07;;;;;;;13.48;7.90;;;;;;;;;;5064737;28;20403;-78
2023/08/22 06:44:33;;;;;;;11.18;6.82;;;;;;;;;;5052179;28;20123;-77
2023/08/22 06:46:59;;;;;;;12.98;7.65;;;;;;;;;;5069281;28;20072;-77
2023/08/22 06:49:25;;;;;;;14.90;7.85;;;;;;;;;;5060775;28;20112;-77
2023/08/22 06:51:51;;;;;;;15.52;8.27;;;;;;;;;;5070091;28;20040;-78
2023/08/22 06:54:17;;;;;;;15.18;7.70;;;;;;;;;;5074558;28;20051;-76
2023/08/22 06:56:43;;;;;;;11.40;7.68;;;;;;;;;;5071461;28;20440;-77
2023/08/22 06:59:09;;;;;;;10.00;6.80;;;;;;;;;;5063206;28;20037;-76
2023/08/22 07:01:35;;;;;;;12.18;7.88;;;;;;;;;;5057410;28;20055;-76
2023/08/22 07:04:01;;;;;;;12.02;7.70;;;;;;;;;;5043759;28;20055;-78
2023/08/22 07:06:27;;;;;;;12.85;7.22;;;;;;;;;;5071034;28;20032;-77
2023/08/22 07:08:53;;;;;;;13.02;8.23;;;;;;;;;;5076015;28;20036;-77
2023/08/22 07:11:19;;;;;;;11.35;6.70;;;;;;;;;;5055027;28;20041;-77
2023/08/22 07:13:46;;;;;;;13.65;7.50;;;;;;;;;;5093183;28;20048;-76
2023/08/22 07:16:12;;;;;;;11.30;6.32;;;;;;;;;;5077310;28;20052;-77
2023/08/22 07:18:38;;;;;;;15.85;6.82;;;;;;;;;;5074895;28;20516;-78
2023/08/22 07:21:07;;;;;;;13.73;6.63;;;;;;;;;;5069292;28;20052;-77
2023/08/22 07:23:33;;;;;;;11.70;7.03;;;;;;;;;;5071434;28;20059;-77
2023/08/22 07:26:01;;;;;;;12.80;6.63;;;;;;;;;;5071691;28;20098;-77
2023/08/22 07:28:27;;;;;;;11.18;5.88;;;;;;;;;;5062327;28;20048;-77
2023/08/22 07:30:53;;;;;;;11.85;6.60;;;;;;;;;;5074492;28;20043;-77
2023/08/22 07:33:20;;;;;;;15.95;6.35;;;;;;;;;;5071882;28;20055;-78
2023/08/22 07:35:46;;;;;;;10.80;5.85;;;;;;;;;;5056249;28;20055;-76
2023/08/22 07:38:13;;;;;;;12.35;5.60;;;;;;;;;;5046074;28;20055;-77
2023/08/22 07:40:40;;;;;;;11.88;5.32;;;;;;;;;;5060594;28;20064;-77
2023/08/22 07:43:06;;;;;;;11.10;5.32;;;;;;;;;;5064756;28;20444;-77
2023/08/22 07:45:32;;;;;;;12.32;5.10;;;;;;;;;;5071840;28;20502;-77
2023/08/22 07:47:58;;;;;;;11.00;4.45;;;;;;;;;;5073148;28;20049;-77
2023/08/22 07:50:24;;;;;;;9.55;4.00;;;;;;;;;;5063353;28;20437;-77
2023/08/22 07:52:50;;;;;;;11.20;4.13;;;;;;;;;;5057118;28;20193;-77
2023/08/22 07:55:16;;;;;;;6.72;3.80;;;;;;;;;;5066675;28;20041;-77
2023/08/22 07:57:42;;;;;;;11.30;4.00;;;;;;;;;;5055080;28;20037;-76
2023/08/22 08:00:11;;;;;;;10.55;4.47;;;;;;;;;;5067730;28;20040;-76
2023/08/22 08:02:37;;;;;;;9.52;3.97;;;;;;;;;;5069780;28;20572;-76
2023/08/22 08:05:03;;;;;;;8.95;4.10;;;;;;;;;;5047370;28;20041;-77
2023/08/22 08:07:29;;;;;;;9.88;3.90;;;;;;;;;;5056888;28;20041;-77
2023/08/22 08:09:56;;;;;;;11.23;4.78;;;;;;;;;;5055782;28;20144;-77
2023/08/22 08:12:22;;;;;;;7.20;4.07;;;;;;;;;;5073439;28;20048;-77
2023/08/22 08:14:48;;;;;;;8.15;4.20;;;;;;;;;;5058404;28;20072;-77
2023/08/22 08:17:18;;;;;;;10.88;4.45;;;;;;;;;;5038529;28;20037;-76
2023/08/22 08:19:44;;;;;;;7.75;4.53;;;;;;;;;;5045033;28;20094;-77
2023/08/22 08:22:14;;;;;;;11.82;5.18;;;;;;;;;;5073744;28;20505;-77
2023/08/22 08:24:40;;;;;;;9.95;4.43;;;;;;;;;;5073535;28;20387;-77
2023/08/22 08:27:06;;;;;;;9.00;4.00;;;;;;;;;;5073010;28;20040;-77
2023/08/22 08:29:32;;;;;;;9.68;4.35;;;;;;;;;;5064019;28;20053;-77
2023/08/22 08:31:58;;;;;;;8.18;4.05;;;;;;;;;;5067675;28;20041;-77
2023/08/22 08:34:25;;;;;;;10.88;4.53;;;;;;;;;;5060075;28;20048;-77
2023/08/22 08:36:51;;;;;;;10.10;3.78;;;;;;;;;;5073903;28;20048;-77
2023/08/22 08:39:18;;;;;;;12.05;3.85;;;;;;;;;;5073323;28;20106;-76
2023/08/22 08:41:54;;;;;;;10.70;3.55;;;;;;;;;;5073142;28;20047;-77
2023/08/22 08:44:20;;;;;;;8.50;2.90;;;;;;;;;;5064015;28;20094;-76
2023/08/22 08:46:46;;;;;;;10.88;3.72;;;;;;;;;;5072205;28;20498;-77
2023/08/22 08:49:14;;;;;;;8.50;3.08;;;;;;;;;;5072395;28;20055;-76
2023/08/22 08:51:42;;;;;;;8.07;3.15;;;;;;;;;;5074326;28;20040;-77
2023/08/22 08:54:09;;;;;;;8.15;3.47;;;;;;;;;;5070058;28;20427;-78
2023/08/22 08:56:35;;;;;;;9.43;3.60;;;;;;;;;;5065085;28;20044;-78
2023/08/22 08:59:01;;;;;;;6.97;2.97;;;;;;;;;;5050779;28;20037;-78
2023/08/22 09:01:27;;;;;;;7.97;3.13;;;;;;;;;;5053962;28;20380;-77
2023/08/22 09:03:54;;;;;;;9.07;3.10;;;;;;;;;;5053510;28;20041;-77
2023/08/22 09:06:20;;;;;;;8.63;2.90;;;;;;;;;;5053936;28;20041;-77
2023/08/22 09:09:12;;;;;;;10.30;2.80;;;;;;;;;;5052246;28;20160;-78
2023/08/22 09:11:57;;;;;;;9.23;3.00;;;;;;;;;;5054025;28;20049;-78
2023/08/22 09:14:23;;;;;;;6.93;2.65;;;;;;;;;;5054284;28;20095;-78
2023/08/22 09:16:50;;;;;;;6.53;2.50;;;;;;;;;;5053778;28;20561;-78
2023/08/22 09:19:16;;;;;;;8.82;2.78;;;;;;;;;;5058727;28;20695;-77
2023/08/22 09:22:09;;;;;;;10.05;2.58;;;;;;;;;;5069592;28;20041;-78
2023/08/22 09:24:35;;;;;;;8.10;2.70;;;;;;;;;;5051417;28;20387;-78
2023/08/22 09:27:05;;;;;;;7.63;2.75;;;;;;;;;;5065481;28;20057;-78
2023/08/22 09:29:33;;;;;;;7.90;2.40;;;;;;;;;;5073398;28;20052;-78
2023/08/22 09:31:59;;;;;;;6.55;1.70;;;;;;;;;;5055442;28;20544;-78
2023/08/22 09:34:25;;;;;;;6.55;1.90;;;;;;;;;;5073040;28;20153;-78
2023/08/22 09:36:53;;;;;;;5.95;2.20;;;;;;;;;;5065449;28;20522;-78
2023/08/22 09:39:19;;;;;;;7.88;2.05;;;;;;;;;;5052929;28;20470;-78
2023/08/22 09:41:46;;;;;;;5.78;1.90;;;;;;;;;;5052509;28;20099;-78
2023/08/22 09:44:12;;;;;;;8.20;2.15;;;;;;;;;;5052941;28;20058;-78
2023/08/22 09:46:41;;;;;;;7.35;2.03;;;;;;;;;;5053945;28;20095;-78
2023/08/22 09:49:07;;;;;;;5.75;2.00;;;;;;;;;;5073296;28;20051;-78
2023/08/22 09:51:33;;;;;;;6.60;1.85;;;;;;;;;;5052620;28;20049;-79
2023/08/22 09:54:00;;;;;;;4.32;1.52;;;;;;;;;;5075541;28;20137;-78
2023/08/22 09:56:27;;;;;;;4.65;1.60;;;;;;;;;;5077338;28;20386;-77
2023/08/22 09:58:53;;;;;;;4.93;1.50;;;;;;;;;;5073354;28;20481;-78
2023/08/22 10:01:20;;;;;;;4.72;1.60;;;;;;;;;;5056201;28;20051;-78
2023/08/22 10:03:49;;;;;;;4.90;1.33;;;;;;;;;;5053738;28;20556;-77
2023/08/22 10:06:16;;;;;;;5.83;1.30;;;;;;;;;;5070756;28;20041;-78
2023/08/22 10:08:43;;;;;;;3.72;1.00;;;;;;;;;;5078964;28;20052;-79
2023/08/22 10:11:10;;;;;;;4.47;1.20;;;;;;;;;;5076763;28;20041;-79
2023/08/22 10:13:37;;;;;;;4.55;1.23;;;;;;;;;;5062382;28;20037;-79
2023/08/22 10:16:04;;;;;;;6.78;1.33;;;;;;;;;;5058090;28;20045;-78
2023/08/22 10:18:30;;;;;;;5.10;0.98;;;;;;;;;;5071260;28;20041;-78
2023/08/22 10:20:56;;;;;;;5.57;1.25;;;;;;;;;;5057666;28;20524;-77
2023/08/22 10:23:41;;;;;;;3.50;1.00;;;;;;;;;;5076086;28;20052;-77
2023/08/22 10:26:07;;;;;;;3.75;1.10;;;;;;;;;;5071564;28;20434;-77
2023/08/22 10:28:41;;;;;;;7.07;1.38;;;;;;;;;;5074937;28;20208;-78
2023/08/22 10:31:07;;;;;;;5.00;1.33;;;;;;;;;;5075134;28;20041;-78
2023/08/22 10:33:33;;;;;;;4.30;1.27;;;;;;;;;;5059070;28;20049;-77
2023/08/22 10:36:15;;;;;;;4.55;1.40;;;;;;;;;;5058963;28;20044;-77
2023/08/22 10:38:51;;;;;;;5.35;1.50;;;;;;;;;;5059426;28;20049;-78
2023/08/22 10:41:20;;;;;;;5.57;1.33;;;;;;;;;;5075827;28;20554;-78
2023/08/22 10:43:47;;;;;;;7.95;1.60;;;;;;;;;;5075922;28;20044;-77
2023/08/22 10:46:14;;;;;;;5.43;1.50;;;;;;;;;;5075796;28;20050;-78
2023/08/22 10:48:40;;;;;;;6.25;1.73;;;;;;;;;;5051482;28;20045;-79
2023/08/22 10:51:07;;;;;;;4.53;1.52;;;;;;;;;;5036985;28;20607;-78
2023/08/22 10:53:43;;;;;;;4.95;1.33;;;;;;;;;;5062838;28;20040;-78
2023/08/22 10:56:20;;;;;;;5.30;1.60;;;;;;;;;;5069767;28;20131;-78
2023/08/22 10:58:57;;;;;;;6.50;1.40;;;;;;;;;;5065266;28;20055;-76
2023/08/22 11:01:23;;;;;;;8.15;2.00;;;;;;;;;;5061599;28;20045;-78
2023/08/22 11:03:50;;;;;;;6.72;1.92;;;;;;;;;;5072757;28;20123;-78
2023/08/22 11:06:20;;;;;;;7.03;1.67;;;;;;;;;;5055415;28;20087;-76
2023/08/22 11:08:46;;;;;;;5.38;1.77;;;;;;;;;;5077154;28;20044;-77
2023/08/22 11:11:13;;;;;;;9.15;1.70;;;;;;;;;;5077767;28;20052;-76
2023/08/22 11:13:40;;;;;;;5.68;1.42;;;;;;;;;;5057801;28;20341;-77
2023/08/22 11:16:11;;;;;;;6.10;1.50;;;;;;;;;;5074700;28;20057;-77
2023/08/22 11:18:37;;;;;;;;;;;;;;;;;;5085192;28;20075;-77
2023/08/22 11:21:03;;;;;;;6.38;1.58;;;;;;;;;;5053707;28;19921;-77
2023/08/22 11:23:36;;;;;;;4.65;1.77;;;;;;;;;;5070950;28;20453;-77
2023/08/22 11:26:02;;;;;;;4.82;2.00;;;;;;;;;;5075199;28;20131;-77
2023/08/22 11:28:32;;;;;;;5.05;1.60;;;;;;;;;;5038117;28;20491;-75
2023/08/22 11:30:58;;;;;;;4.93;1.48;;;;;;;;;;5054896;28;20112;-76
2023/08/22 11:33:24;;;;;;;6.53;2.00;;;;;;;;;;5057995;28;20052;-77
2023/08/22 11:35:52;;;;;;;5.28;2.33;;;;;;;;;;5072798;28;20110;-77
2023/08/22 11:38:18;;;;;;;6.80;2.08;;;;;;;;;;5074175;28;20083;-77
2023/08/22 11:40:44;;;;;;;9.90;1.80;;;;;;;;;;5069508;28;20047;-77
2023/08/22 11:43:10;;;;;;;6.25;1.50;;;;;;;;;;5075254;28;20052;-77
2023/08/22 11:45:46;;;;;;;5.97;1.40;;;;;;;;;;5075627;28;20049;-77
2023/08/22 11:48:15;;;;;;;4.25;1.15;;;;;;;;;;5080433;28;20045;-77
2023/08/22 11:50:42;;;;;;;4.97;1.25;;;;;;;;;;5065136;28;20068;-77
2023/08/22 11:53:12;;;;;;;4.00;1.10;;;;;;;;;;5074167;28;20056;-77
2023/08/22 11:55:40;;;;;;;3.75;0.82;;;;;;;;;;5075466;28;20072;-77
2023/08/22 11:58:10;;;;;;;3.67;0.70;;;;;;;;;;5062760;28;20518;-78
2023/08/22 12:00:36;;;;;;;3.63;0.77;;;;;;;;;;5037559;28;20037;-77
2023/08/22 12:03:05;;;;;;;3.80;0.82;;;;;;;;;;5067576;28;20051;-77
2023/08/22 12:05:32;;;;;;;2.60;0.65;;;;;;;;;;5054555;28;20128;-77
2023/08/22 12:07:58;;;;;;;4.30;0.80;;;;;;;;;;5073894;28;20044;-76
2023/08/22 12:10:24;;;;;;;4.10;0.85;;;;;;;;;;5065119;28;20037;-77
2023/08/22 12:12:50;;;;;;;3.47;0.70;;;;;;;;;;5061348;28;20064;-78
2023/08/22 12:15:16;;;;;;;3.67;0.77;;;;;;;;;;5072755;28;20045;-77
2023/08/22 12:17:42;;;;;;;3.17;0.70;;;;;;;;;;5065288;28;20037;-77
2023/08/22 12:20:09;;;;;;;3.58;0.68;;;;;;;;;;5053759;28;20147;-77
2023/08/22 12:22:35;;;;;;;4.18;0.70;;;;;;;;;;5049130;28;20052;-77
2023/08/22 12:25:01;;;;;;;3.80;0.75;;;;;;;;;;5016953;28;20049;-76
2023/08/22 12:27:27;;;;;;;3.05;0.55;;;;;;;;;;5049147;28;20056;-76
2023/08/22 12:29:53;;;;;;;2.85;0.60;;;;;;;;;;5053930;28;20407;-77
2023/08/22 12:32:20;;;;;;;2.83;0.70;;;;;;;;;;5054231;28;20569;-76
2023/08/22 12:34:46;;;;;;;5.82;0.73;;;;;;;;;;5063410;28;20052;-77
2023/08/22 12:37:12;;;;;;;4.25;0.93;;;;;;;;;;5074292;28;20537;-77
2023/08/22 12:39:38;;;;;;;2.25;0.70;;;;;;;;;;5074775;28;20056;-77
2023/08/22 12:42:04;;;;;;;3.53;0.70;;;;;;;;;;5071606;28;20405;-77
2023/08/22 12:44:31;;;;;;;3.35;0.70;;;;;;;;;;5073898;28;20036;-77
2023/08/22 12:46:59;;;;;;;3.90;0.70;;;;;;;;;;5073942;28;20344;-77
2023/08/22 12:49:26;;;;;;;2.42;0.55;;;;;;;;;;5056816;28;20056;-77
2023/08/22 12:51:52;;;;;;;3.65;0.60;;;;;;;;;;5074050;28;20045;-78
2023/08/22 12:54:18;;;;;;;3.00;0.50;;;;;;;;;;5066932;28;20127;-77
2023/08/22 12:56:44;;;;;;;4.05;0.60;;;;;;;;;;5073671;28;20445;-77
2023/08/22 12:59:10;;;;;;;4.55;0.70;;;;;;;;;;5073938;28;20037;-77
2023/08/22 13:01:36;;;;;;;5.15;0.80;;;;;;;;;;5073195;28;20444;-77
2023/08/22 13:04:11;;;;;;;2.90;0.70;;;;;;;;;;5073981;28;20044;-77
2023/08/22 13:06:37;;;;;;;4.07;0.80;;;;;;;;;;5074549;28;20084;-78
2023/08/22 13:09:03;;;;;;;3.17;0.80;;;;;;;;;;5070040;28;20092;-78
2023/08/22 13:11:29;;;;;;;3.83;0.82;;;;;;;;;;5020516;28;20056;-78
2023/08/22 13:13:55;;;;;;;6.22;0.90;;;;;;;;;;5054200;28;20049;-78
2023/08/22 13:16:21;;;;;;;4.05;0.90;;;;;;;;;;5068050;28;20053;-77
2023/08/22 13:18:47;;;;;;;3.72;0.65;;;;;;;;;;5071715;28;20044;-77
2023/08/22 13:21:13;;;;;;;3.28;0.70;;;;;;;;;;5063013;28;20052;-76
2023/08/22 13:23:39;;;;;;;4.10;0.88;;;;;;;;;;5057117;28;20073;-77
2023/08/22 13:26:05;;;;;;;3.92;0.70;;;;;;;;;;5057487;28;20048;-77
2023/08/22 13:28:31;;;;;;;3.45;0.60;;;;;;;;;;5065396;28;20066;-78
2023/08/22 13:30:57;;;;;;;3.55;0.70;;;;;;;;;;5066644;28;20052;-77
2023/08/22 13:33:23;;;;;;;4.35;1.00;;;;;;;;;;5053695;28;20056;-77
2023/08/22 13:35:49;;;;;;;2.08;0.60;;;;;;;;;;5065352;28;20056;-77
2023/08/22 13:38:15;;;;;;;4.22;0.80;;;;;;;;;;5068398;28;20131;-77
2023/08/22 13:40:41;;;;;;;4.30;0.98;;;;;;;;;;5064817;28;20072;-78
2023/08/22 13:43:07;;;;;;;7.88;1.20;;;;;;;;;;5074102;28;20072;-77
2023/08/22 13:45:33;;;;;;;6.72;1.10;;;;;;;;;;5070106;28;20041;-78
2023/08/22 13:48:00;;;;;;;4.40;0.95;;;;;;;;;;5066812;28;20067;-77
2023/08/22 13:50:26;;;;;;;4.47;0.80;;;;;;;;;;5067517;28;20381;-78
2023/08/22 13:52:52;;;;;;;3.33;0.88;;;;;;;;;;5059489;28;20527;-77
2023/08/22 13:55:18;;;;;;;3.75;1.10;;;;;;;;;;5051371;28;20083;-78
2023/08/22 13:57:44;;;;;;;4.53;0.93;;;;;;;;;;5068322;28;20124;-77
2023/08/22 14:00:10;;;;;;;3.13;0.90;;;;;;;;;;5073663;28;20063;-79
2023/08/22 14:02:36;;;;;;;4.00;0.80;;;;;;;;;;5076574;28;20134;-77
2023/08/22 14:05:02;;;;;;;4.40;0.73;;;;;;;;;;5076780;28;20036;-78
2023/08/22 14:07:28;;;;;;;5.03;1.02;;;;;;;;;;5068753;28;20036;-77
2023/08/22 14:09:54;;;;;;;4.32;1.20;;;;;;;;;;5051550;28;20040;-77
2023/08/22 14:12:20;;;;;;;4.00;1.10;;;;;;;;;;5064723;28;20407;-77
2023/08/22 14:14:46;;;;;;;4.20;1.10;;;;;;;;;;5063549;28;20044;-78
2023/08/22 14:17:12;;;;;;;5.57;1.15;;;;;;;;;;5073919;28;20042;-78
2023/08/22 14:19:38;;;;;;;4.63;1.10;;;;;;;;;;5071475;28;20124;-78
2023/08/22 14:22:04;;;;;;;5.90;1.20;;;;;;;;;;5060190;28;20099;-78
2023/08/22 14:24:30;;;;;;;4.30;1.40;;;;;;;;;;5071130;28;20511;-77
2023/08/22 14:26:56;;;;;;;5.20;1.38;;;;;;;;;;5078491;28;20049;-78
2023/08/22 14:29:22;;;;;;;5.93;1.75;;;;;;;;;;5077497;28;20052;-77
2023/08/22 14:31:48;;;;;;;6.63;1.60;;;;;;;;;;5076671;28;20040;-78
2023/08/22 14:34:14;;;;;;;5.55;1.75;;;;;;;;;;5063998;28;20051;-78